Time;durP1;ratioP1;P1;durP2;ratioP2;P2;SDS_P1;SDS_P2;PMS_P1;PMS_P2;Temp;Humidity;BMP_temperature;BMP_pressure;BME280_temperature;BME280_humidity;BME280_pressure;Samples;Min_cycle;Max_cycle;Signal;HPM_P1;HPM_P2
2021/06/13 00:00:01;;;;;;;8.33;7.73;;;13.00;99.90;;;;;;5014160;28;20633;-66
2021/06/13 00:02:26;;;;;;;8.83;8.13;;;12.90;99.90;;;;;;5013309;28;20250;-65
2021/06/13 00:04:52;;;;;;;9.97;9.07;;;12.80;99.90;;;;;;5020648;28;20699;-64
2021/06/13 00:07:18;;;;;;;9.70;8.73;;;12.80;99.90;;;;;;5032874;28;20748;-64
2021/06/13 00:09:43;;;;;;;9.57;8.77;;;12.80;99.90;;;;;;5029889;28;20179;-63
2021/06/13 00:12:11;;;;;;;9.43;8.83;;;12.70;99.90;;;;;;5032775;28;20270;-64
2021/06/13 00:14:37;;;;;;;10.10;8.03;;;12.60;99.90;;;;;;5027661;28;20204;-64
2021/06/13 00:17:04;;;;;;;9.63;8.83;;;12.60;99.90;;;;;;5013035;28;20183;-64
2021/06/13 00:19:29;;;;;;;9.37;8.47;;;12.60;99.90;;;;;;5013868;28;20171;-66
2021/06/13 00:21:55;;;;;;;8.93;8.17;;;12.50;99.90;;;;;;5012370;28;20281;-65
2021/06/13 00:24:22;;;;;;;9.07;8.37;;;12.50;99.90;;;;;;5013749;28;20673;-64
2021/06/13 00:26:48;;;;;;;9.00;8.37;;;12.50;99.90;;;;;;5012800;28;20210;-65
2021/06/13 00:29:13;;;;;;;9.30;8.60;;;12.50;99.90;;;;;;5014025;28;20202;-64
2021/06/13 00:31:39;;;;;;;9.00;8.30;;;12.50;99.90;;;;;;5012289;28;20637;-65
2021/06/13 00:34:04;;;;;;;9.23;8.43;;;12.50;99.90;;;;;;5014186;28;20324;-64
2021/06/13 00:36:30;;;;;;;8.90;8.10;;;12.50;99.90;;;;;;5032237;28;20182;-65
2021/06/13 00:38:57;;;;;;;8.73;8.13;;;12.50;99.90;;;;;;5031972;28;20191;-65
2021/06/13 00:41:23;;;;;;;9.30;8.40;;;12.40;99.90;;;;;;5031209;28;20178;-66
2021/06/13 00:43:49;;;;;;;8.93;8.23;;;12.50;99.90;;;;;;5031040;28;20219;-64
2021/06/13 00:46:15;;;;;;;10.40;9.50;;;12.50;99.90;;;;;;5013417;28;20652;-64
2021/06/13 00:48:41;;;;;;;9.80;8.93;;;12.40;99.90;;;;;;5012236;28;20180;-64
2021/06/13 00:51:07;;;;;;;9.00;8.40;;;12.40;99.90;;;;;;5013218;28;20195;-65
2021/06/13 00:53:34;;;;;;;9.07;8.37;;;12.40;99.90;;;;;;5012470;28;20299;-64
2021/06/13 00:56:00;;;;;;;10.40;9.40;;;12.40;99.90;;;;;;5013271;28;20194;-64
2021/06/13 00:58:26;;;;;;;9.30;8.50;;;12.40;99.90;;;;;;5012456;28;20203;-65
2021/06/13 01:00:52;;;;;;;9.73;8.90;;;12.30;99.90;;;;;;5013150;28;20190;-65
2021/06/13 01:03:19;;;;;;;9.57;8.83;;;12.40;99.90;;;;;;5012210;28;20235;-65
2021/06/13 01:05:45;;;;;;;9.40;8.50;;;12.30;99.90;;;;;;5024091;28;20175;-63
2021/06/13 01:08:41;;;;;;;10.07;9.27;;;12.30;99.90;;;;;;5031923;28;20183;-66
2021/06/13 01:11:45;;;;;;;10.80;8.73;;;12.30;99.90;;;;;;5016629;28;20198;-66
2021/06/13 01:14:43;;;;;;;9.93;9.00;;;12.20;99.90;;;;;;4994014;28;20510;-66
2021/06/13 01:17:20;;;;;;;10.60;9.70;;;12.20;99.90;;;;;;5012528;28;20643;-66
2021/06/13 01:20:24;;;;;;;9.73;8.93;;;12.10;99.90;;;;;;5012789;28;20180;-64
2021/06/13 01:23:04;;;;;;;9.97;9.20;;;12.10;99.90;;;;;;5011873;28;20203;-66
2021/06/13 01:25:38;;;;;;;11.47;10.37;;;12.00;99.90;;;;;;5012954;28;20180;-66
2021/06/13 01:28:23;;;;;;;10.73;9.63;;;12.00;99.90;;;;;;5011789;28;20167;-66
2021/06/13 01:30:51;;;;;;;11.10;10.00;;;12.00;99.90;;;;;;5012789;28;20191;-66
2021/06/13 01:33:18;;;;;;;10.80;9.80;;;12.00;99.90;;;;;;5011729;28;20184;-66
2021/06/13 01:35:46;;;;;;;11.17;10.17;;;12.00;99.90;;;;;;5012757;28;20180;-67
2021/06/13 01:38:13;;;;;;;9.97;9.17;;;12.00;99.90;;;;;;5011894;28;20175;-64
2021/06/13 01:40:40;;;;;;;11.47;10.10;;;12.00;99.90;;;;;;5018845;28;20250;-65
2021/06/13 01:43:08;;;;;;;10.73;9.83;;;11.90;99.90;;;;;;5031196;28;20552;-64
2021/06/13 01:45:37;;;;;;;10.63;9.73;;;11.90;99.90;;;;;;5029622;28;20184;-65
2021/06/13 01:48:05;;;;;;;10.27;9.30;;;11.90;99.90;;;;;;5031369;28;20644;-65
2021/06/13 01:50:31;;;;;;;9.73;8.73;;;11.90;99.90;;;;;;5029306;28;20211;-64
2021/06/13 01:53:00;;;;;;;9.73;8.77;;;11.90;99.90;;;;;;5031380;28;20194;-65
2021/06/13 01:55:26;;;;;;;9.13;8.43;;;11.80;99.90;;;;;;5032132;28;20215;-64
2021/06/13 01:57:53;;;;;;;9.77;8.87;;;11.80;99.90;;;;;;5035190;28;20214;-64
2021/06/13 02:00:20;;;;;;;10.60;9.60;;;11.70;99.90;;;;;;5033406;28;20412;-64
2021/06/13 02:02:52;;;;;;;10.60;9.70;;;11.80;99.90;;;;;;5035062;28;20203;-64
2021/06/13 02:05:21;;;;;;;10.70;9.60;;;11.70;99.90;;;;;;5029418;28;20168;-64
2021/06/13 02:07:47;;;;;;;13.27;9.10;;;11.70;99.90;;;;;;5015532;28;20475;-64
2021/06/13 02:10:17;;;;;;;10.50;9.50;;;11.70;99.90;;;;;;5018668;28;20668;-64
2021/06/13 02:12:45;;;;;;;11.00;9.33;;;11.70;99.90;;;;;;5035024;28;20172;-64
2021/06/13 02:15:12;;;;;;;9.73;8.93;;;11.60;99.90;;;;;;5033275;28;20282;-64
2021/06/13 02:17:42;;;;;;;10.23;9.23;;;11.60;99.90;;;;;;5034837;28;20177;-64
2021/06/13 02:20:11;;;;;;;11.83;9.57;;;11.50;99.90;;;;;;5031601;28;20184;-64
2021/06/13 02:22:38;;;;;;;10.37;9.47;;;11.50;99.90;;;;;;5014948;28;20236;-64
2021/06/13 02:25:04;;;;;;;10.40;9.50;;;11.50;99.90;;;;;;5016519;28;20199;-63
2021/06/13 02:27:30;;;;;;;10.67;9.73;;;11.40;99.90;;;;;;5034702;28;20180;-65
2021/06/13 02:29:58;;;;;;;11.93;10.00;;;11.40;99.90;;;;;;5019493;28;20532;-64
2021/06/13 02:32:24;;;;;;;9.80;8.93;;;11.40;99.90;;;;;;5034564;28;20229;-65
2021/06/13 02:34:50;;;;;;;10.93;9.80;;;11.40;99.90;;;;;;5020632;28;20196;-64
2021/06/13 02:37:17;;;;;;;10.40;9.40;;;11.30;99.90;;;;;;5014818;28;20191;-64
2021/06/13 02:39:43;;;;;;;11.70;9.17;;;11.40;99.90;;;;;;5026500;28;20233;-64
2021/06/13 02:42:09;;;;;;;11.30;9.43;;;11.30;99.90;;;;;;5034223;28;20597;-64
2021/06/13 02:44:35;;;;;;;10.43;9.50;;;11.30;99.90;;;;;;5023436;28;20204;-64
2021/06/13 02:47:00;;;;;;;11.37;10.17;;;11.30;99.90;;;;;;5014615;28;20275;-65
2021/06/13 02:49:26;;;;;;;10.80;9.27;;;11.30;99.90;;;;;;5015548;28;20180;-65
2021/06/13 02:52:09;;;;;;;10.60;9.53;;;11.30;99.90;;;;;;5014114;28;20281;-63
2021/06/13 02:54:37;;;;;;;10.57;9.60;;;11.20;99.90;;;;;;5023919;28;20265;-64
2021/06/13 02:57:08;;;;;;;11.37;10.37;;;11.20;99.90;;;;;;5032974;28;20263;-65
2021/06/13 02:59:38;;;;;;;13.20;9.97;;;11.20;99.90;;;;;;5032369;28;20168;-64
2021/06/13 03:02:08;;;;;;;10.67;9.73;;;11.20;99.90;;;;;;5032036;28;20226;-64
2021/06/13 03:04:35;;;;;;;11.40;9.83;;;11.10;99.90;;;;;;5032231;28;20622;-66
2021/06/13 03:07:03;;;;;;;11.10;10.00;;;11.20;99.90;;;;;;5033273;28;20641;-66
2021/06/13 03:09:30;;;;;;;11.80;10.60;;;11.10;99.90;;;;;;5025902;28;20168;-64
2021/06/13 03:11:57;;;;;;;10.70;9.77;;;11.10;99.90;;;;;;5014100;28;20199;-64
2021/06/13 03:14:27;;;;;;;11.23;9.53;;;11.10;99.90;;;;;;5018378;28;20195;-64
2021/06/13 03:16:55;;;;;;;12.13;9.27;;;11.00;99.90;;;;;;5033834;28;20171;-64
2021/06/13 03:19:22;;;;;;;11.17;10.03;;;11.00;99.90;;;;;;5028584;28;20172;-64
2021/06/13 03:21:49;;;;;;;11.67;9.73;;;11.00;99.90;;;;;;5011958;28;20642;-64
2021/06/13 03:24:16;;;;;;;11.60;10.17;;;11.00;99.90;;;;;;5016383;28;20291;-64
2021/06/13 03:26:43;;;;;;;16.33;10.90;;;11.00;99.90;;;;;;5032748;28;20175;-64
2021/06/13 03:29:09;;;;;;;10.77;9.63;;;11.00;99.90;;;;;;5031294;28;20825;-64
2021/06/13 03:31:35;;;;;;;11.80;10.63;;;11.00;99.90;;;;;;5013468;28;20238;-64
2021/06/13 03:34:01;;;;;;;10.50;9.60;;;11.00;99.90;;;;;;5014063;28;20195;-64
2021/06/13 03:36:30;;;;;;;12.30;10.37;;;10.90;99.90;;;;;;5033640;28;20176;-65
2021/06/13 03:38:56;;;;;;;11.87;9.60;;;10.90;99.90;;;;;;5033579;28;20755;-64
2021/06/13 03:41:24;;;;;;;11.50;10.40;;;11.00;99.90;;;;;;5013811;28;20180;-64
2021/06/13 03:43:52;;;;;;;16.13;10.83;;;11.00;99.90;;;;;;5020372;28;20214;-64
2021/06/13 03:46:19;;;;;;;11.83;10.73;;;11.00;99.90;;;;;;5033512;28;20199;-65
2021/06/13 03:48:50;;;;;;;10.40;9.40;;;11.00;99.90;;;;;;5027054;28;20250;-64
2021/06/13 03:51:17;;;;;;;11.97;9.87;;;11.00;99.90;;;;;;5013454;28;20295;-64
2021/06/13 03:53:54;;;;;;;11.37;10.00;;;11.10;99.90;;;;;;5014500;28;20202;-65
2021/06/13 03:56:26;;;;;;;12.43;10.50;;;11.00;99.90;;;;;;5013647;28;20668;-64
2021/06/13 03:58:53;;;;;;;11.87;10.43;;;11.00;99.90;;;;;;5019295;28;20187;-64
2021/06/13 04:01:21;;;;;;;11.13;10.03;;;11.10;99.90;;;;;;5032871;28;20167;-65
2021/06/13 04:03:49;;;;;;;11.07;9.97;;;11.20;99.90;;;;;;5031322;28;20207;-64
2021/06/13 04:06:16;;;;;;;16.80;11.03;;;11.30;99.90;;;;;;5033001;28;20251;-64
2021/06/13 04:08:43;;;;;;;11.57;10.47;;;11.30;99.90;;;;;;5029298;28;20199;-63
2021/06/13 04:11:10;;;;;;;11.57;10.47;;;11.50;99.90;;;;;;5013019;28;20188;-65
2021/06/13 04:13:37;;;;;;;12.27;11.00;;;11.60;99.90;;;;;;5014961;28;20184;-64
2021/06/13 04:16:07;;;;;;;11.83;10.63;;;11.60;99.90;;;;;;5032713;28;20172;-65
2021/06/13 04:18:34;;;;;;;13.40;11.60;;;11.90;99.90;;;;;;5031320;28;20186;-65
2021/06/13 04:21:00;;;;;;;12.30;10.47;;;12.10;99.90;;;;;;5012702;28;20178;-64
2021/06/13 04:23:27;;;;;;;11.63;10.30;;;12.20;99.90;;;;;;5012794;28;20265;-64
2021/06/13 04:25:56;;;;;;;11.90;9.90;;;12.30;99.90;;;;;;5031597;28;20254;-65
2021/06/13 04:28:22;;;;;;;13.13;10.80;;;12.20;99.90;;;;;;5028791;28;20180;-64
2021/06/13 04:31:11;;;;;;;13.00;10.80;;;12.30;99.90;;;;;;5030861;28;20896;-64
2021/06/13 04:33:37;;;;;;;11.80;9.67;;;12.40;99.90;;;;;;5030773;28;20591;-64
2021/06/13 04:36:04;;;;;;;15.13;10.53;;;12.60;99.90;;;;;;5032351;28;20240;-64
2021/06/13 04:38:29;;;;;;;12.60;10.60;;;12.70;99.90;;;;;;5029990;28;20251;-65
2021/06/13 04:40:55;;;;;;;14.03;9.90;;;12.80;99.90;;;;;;5012375;28;20250;-64
2021/06/13 04:43:21;;;;;;;10.57;9.67;;;12.90;99.90;;;;;;5060838;22;20215;-65
2021/06/13 04:45:47;;;;;;;10.93;9.83;;;13.10;99.90;;;;;;5012951;28;20199;-65
2021/06/13 04:48:12;;;;;;;11.93;10.33;;;13.50;99.90;;;;;;5012457;28;20169;-65
2021/06/13 04:50:43;;;;;;;12.90;9.57;;;13.80;99.90;;;;;;5030612;28;20191;-65
2021/06/13 04:53:25;;;;;;;9.83;8.53;;;14.30;99.90;;;;;;5032543;28;20193;-65
2021/06/13 04:55:54;;;;;;;14.97;10.33;;;14.70;99.90;;;;;;5012494;28;20208;-65
2021/06/13 04:58:25;;;;;;;10.10;9.13;;;15.10;99.90;;;;;;5010995;28;20546;-65
2021/06/13 05:00:50;;;;;;;10.57;9.57;;;15.50;99.90;;;;;;5031055;28;20270;-65
2021/06/13 05:03:17;;;;;;;10.53;9.63;;;15.60;99.90;;;;;;5031902;28;20402;-65
2021/06/13 05:05:42;;;;;;;11.53;9.30;;;16.00;99.90;;;;;;5030226;28;20245;-65
2021/06/13 05:08:08;;;;;;;10.23;9.40;;;16.20;99.90;;;;;;5031763;28;20650;-65
2021/06/13 05:10:35;;;;;;;9.57;8.70;;;16.50;99.90;;;;;;5015703;28;20176;-65
2021/06/13 05:13:00;;;;;;;10.73;9.63;;;16.70;99.90;;;;;;5011994;28;20188;-65
2021/06/13 05:15:26;;;;;;;13.70;9.17;;;17.00;99.90;;;;;;5025401;28;20203;-65
2021/06/13 05:17:53;;;;;;;10.17;9.23;;;17.20;99.90;;;;;;5031828;28;20731;-66
2021/06/13 05:20:19;;;;;;;11.20;9.40;;;17.30;99.90;;;;;;5019058;28;20276;-65
2021/06/13 05:22:58;;;;;;;9.27;8.30;;;17.40;99.90;;;;;;5011810;28;20204;-65
2021/06/13 05:25:27;;;;;;;8.47;7.77;;;17.60;99.90;;;;;;5013343;28;20230;-65
2021/06/13 05:27:54;;;;;;;10.80;9.10;;;17.50;99.90;;;;;;5011593;28;20175;-65
2021/06/13 05:30:20;;;;;;;9.20;8.37;;;17.50;99.90;;;;;;5012225;28;20180;-65
2021/06/13 05:32:46;;;;;;;14.47;8.47;;;17.60;99.90;;;;;;5011779;28;20180;-65
2021/06/13 05:35:12;;;;;;;8.60;7.77;;;17.80;99.90;;;;;;5020726;28;20199;-66
2021/06/13 05:37:38;;;;;;;9.00;7.90;;;17.90;99.90;;;;;;5031531;28;20233;-66
2021/06/13 05:40:08;;;;;;;8.17;7.13;;;18.00;99.90;;;;;;5029485;28;20175;-65
2021/06/13 05:42:34;;;;;;;10.93;8.40;;;18.20;99.90;;;;;;5031265;28;20289;-65
2021/06/13 05:45:00;;;;;;;9.53;8.13;;;18.50;99.90;;;;;;5024805;28;20243;-65
2021/06/13 05:47:25;;;;;;;8.50;7.40;;;18.70;99.90;;;;;;5011747;28;20180;-65
2021/06/13 05:49:51;;;;;;;8.63;7.73;;;18.90;99.90;;;;;;5012484;28;20242;-65
2021/06/13 05:52:17;;;;;;;8.68;7.90;;;19.10;99.90;;;;;;5011779;28;20668;-65
2021/06/13 05:54:42;;;;;;;8.60;7.80;;;19.30;99.90;;;;;;5013679;28;20222;-66
2021/06/13 05:57:08;;;;;;;8.80;7.67;;;19.30;99.90;;;;;;5031365;28;20171;-66
2021/06/13 05:59:33;;;;;;;8.25;7.22;;;19.30;99.90;;;;;;5030543;28;20238;-66
2021/06/13 06:01:59;;;;;;;9.63;7.18;;;19.50;99.90;;;;;;5029970;28;20171;-66
2021/06/13 06:04:24;;;;;;;8.45;7.63;;;19.90;99.90;;;;;;5031224;28;20198;-66
2021/06/13 06:06:50;;;;;;;10.30;8.02;;;20.40;99.90;;;;;;5028219;28;20183;-66
2021/06/13 06:09:16;;;;;;;7.03;6.40;;;20.70;99.90;;;;;;5031295;28;20254;-65
2021/06/13 06:11:42;;;;;;;7.43;6.72;;;20.90;99.90;;;;;;5014021;28;20554;-65
2021/06/13 06:14:11;;;;;;;7.18;6.45;;;21.10;99.90;;;;;;5011299;28;20211;-66
2021/06/13 06:16:38;;;;;;;10.07;7.22;;;21.50;99.90;;;;;;5026512;28;20187;-66
2021/06/13 06:19:03;;;;;;;8.70;6.55;;;21.70;99.90;;;;;;5031281;28;20644;-66
2021/06/13 06:21:29;;;;;;;7.47;6.50;;;21.40;99.90;;;;;;5029218;28;20191;-66
2021/06/13 06:23:55;;;;;;;9.23;6.68;;;21.40;99.90;;;;;;5030870;28;20246;-65
2021/06/13 06:26:21;;;;;;;7.00;6.32;;;21.40;99.90;;;;;;5028106;28;20180;-66
2021/06/13 06:28:47;;;;;;;6.75;6.15;;;21.30;99.90;;;;;;5023631;28;20218;-66
2021/06/13 06:31:13;;;;;;;7.80;7.10;;;21.40;99.90;;;;;;5011036;28;20176;-65
2021/06/13 06:33:38;;;;;;;7.38;6.28;;;21.90;99.90;;;;;;5015542;28;20207;-66
2021/06/13 06:36:05;;;;;;;7.82;6.45;;;22.20;99.90;;;;;;5012128;28;20180;-66
2021/06/13 06:38:31;;;;;;;7.38;6.15;;;22.30;99.90;;;;;;5014876;28;20540;-66
2021/06/13 06:40:58;;;;;;;6.50;5.75;;;22.20;99.90;;;;;;5030531;28;20251;-65
2021/06/13 06:43:24;;;;;;;6.97;5.30;;;22.50;99.90;;;;;;5032798;28;20562;-66
2021/06/13 06:45:50;;;;;;;6.20;5.65;;;22.90;99.90;;;;;;5034461;28;20209;-65
2021/06/13 06:48:16;;;;;;;6.35;5.75;;;23.30;99.90;;;;;;5033386;28;20653;-66
2021/06/13 06:50:41;;;;;;;6.32;5.80;;;23.30;99.90;;;;;;5014167;28;20172;-65
2021/06/13 06:53:07;;;;;;;6.22;5.63;;;23.00;99.90;;;;;;5014560;28;20178;-66
2021/06/13 06:55:33;;;;;;;6.63;6.03;;;23.00;99.90;;;;;;5033054;28;20191;-66
2021/06/13 06:57:59;;;;;;;6.32;5.70;;;23.40;99.90;;;;;;5034126;28;20176;-65
2021/06/13 07:00:24;;;;;;;7.78;5.30;;;23.70;99.90;;;;;;5032056;28;20470;-66
2021/06/13 07:02:50;;;;;;;6.55;6.05;;;24.10;99.90;;;;;;5034109;28;20216;-66
2021/06/13 07:05:16;;;;;;;7.55;5.95;;;24.50;99.90;;;;;;5032398;28;20624;-65
2021/06/13 07:07:42;;;;;;;7.05;6.18;;;24.90;99.90;;;;;;5027228;28;20180;-66
2021/06/13 07:10:10;;;;;;;6.18;5.50;;;24.80;99.90;;;;;;5015353;28;20180;-66
2021/06/13 07:12:36;;;;;;;5.10;4.70;;;24.40;99.90;;;;;;5014076;28;20183;-65
2021/06/13 07:15:03;;;;;;;5.80;5.22;;;24.10;99.90;;;;;;5015133;28;20204;-65
2021/06/13 07:17:29;;;;;;;5.85;5.25;;;23.50;99.90;;;;;;5021363;28;20541;-65
2021/06/13 07:19:54;;;;;;;6.53;5.32;;;23.00;99.90;;;;;;5023594;28;20172;-65
2021/06/13 07:22:20;;;;;;;6.07;5.47;;;23.00;99.90;;;;;;5031032;28;20642;-65
2021/06/13 07:24:45;;;;;;;6.03;5.43;;;22.60;99.90;;;;;;5014472;28;20211;-65
2021/06/13 07:27:11;;;;;;;5.85;5.35;;;21.90;99.90;;;;;;5032970;28;20183;-66
2021/06/13 07:29:37;;;;;;;8.50;5.70;;;21.50;99.90;;;;;;5026807;28;20179;-65
2021/06/13 07:32:03;;;;;;;7.60;5.38;;;21.60;99.90;;;;;;5013541;28;20172;-65
2021/06/13 07:34:29;;;;;;;9.18;5.97;;;21.80;99.90;;;;;;5014691;28;20604;-65
2021/06/13 07:36:54;;;;;;;6.03;4.93;;;22.20;99.90;;;;;;5013731;28;20262;-65
2021/06/13 07:39:21;;;;;;;6.75;5.18;;;22.60;99.90;;;;;;5016080;28;20173;-65
2021/06/13 07:41:49;;;;;;;6.82;5.30;;;22.80;99.90;;;;;;5032949;28;20615;-66
2021/06/13 07:44:16;;;;;;;6.32;5.75;;;23.10;99.90;;;;;;5031552;28;20296;-66
2021/06/13 07:46:42;;;;;;;6.25;5.47;;;23.30;99.90;;;;;;5013098;28;20191;-65
2021/06/13 07:49:07;;;;;;;5.65;5.15;;;23.50;99.90;;;;;;5013448;28;20570;-66
2021/06/13 07:51:33;;;;;;;5.70;5.28;;;23.70;99.90;;;;;;5013225;28;20188;-65
2021/06/13 07:53:58;;;;;;;7.22;5.10;;;23.70;99.90;;;;;;5011700;28;20746;-65
2021/06/13 07:56:24;;;;;;;6.00;5.00;;;24.40;99.90;;;;;;5014144;28;20184;-65
2021/06/13 07:58:50;;;;;;;7.13;6.25;;;24.80;99.90;;;;;;5012705;28;20184;-65
2021/06/13 08:01:15;;;;;;;5.97;5.20;;;24.60;99.90;;;;;;5028517;28;20175;-65
2021/06/13 08:03:41;;;;;;;6.07;5.00;;;24.50;99.90;;;;;;5032595;28;20215;-65
2021/06/13 08:06:07;;;;;;;6.65;6.05;;;24.50;99.90;;;;;;5031100;28;20171;-65
2021/06/13 08:08:33;;;;;;;6.82;5.38;;;24.60;99.90;;;;;;5032610;28;20251;-63
2021/06/13 08:10:59;;;;;;;5.45;4.85;;;25.40;99.90;;;;;;5020368;28;20271;-64
2021/06/13 08:13:24;;;;;;;5.90;5.25;;;26.10;99.90;;;;;;5012745;28;20203;-66
2021/06/13 08:15:50;;;;;;;5.85;5.40;;;25.50;99.90;;;;;;5022792;28;20184;-65
2021/06/13 08:18:15;;;;;;;5.82;5.00;;;25.20;99.90;;;;;;5032373;28;20179;-65
2021/06/13 08:20:41;;;;;;;5.93;5.32;;;25.50;99.90;;;;;;5023791;28;20630;-66
2021/06/13 08:23:07;;;;;;;6.78;6.15;;;25.70;99.90;;;;;;5012550;28;20231;-66
2021/06/13 08:25:33;;;;;;;5.80;5.25;;;25.80;99.90;;;;;;5012912;28;20176;-66
2021/06/13 08:27:59;;;;;;;5.90;5.32;;;26.20;99.90;;;;;;5014418;28;20168;-66
2021/06/13 08:30:24;;;;;;;6.63;5.97;;;26.50;99.90;;;;;;5032020;28;20604;-64
2021/06/13 08:32:50;;;;;;;6.85;5.82;;;25.80;99.90;;;;;;5031978;28;20225;-66
2021/06/13 08:35:16;;;;;;;7.10;5.75;;;25.80;99.90;;;;;;5012509;28;20204;-66
2021/06/13 08:37:42;;;;;;;6.07;5.47;;;26.00;99.90;;;;;;5012556;28;20180;-66
2021/06/13 08:40:10;;;;;;;8.00;4.90;;;26.30;99.90;;;;;;5013377;28;20180;-65
2021/06/13 08:42:39;;;;;;;5.78;5.28;;;26.40;99.90;;;;;;5012308;28;20211;-65
2021/06/13 08:45:07;;;;;;;7.13;5.38;;;25.60;99.90;;;;;;5013628;28;20692;-65
2021/06/13 08:47:33;;;;;;;5.78;4.82;;;25.90;99.90;;;;;;5011157;28;20641;-66
2021/06/13 08:49:58;;;;;;;5.10;4.43;;;25.90;99.90;;;;;;5027918;28;20237;-66
2021/06/13 08:52:24;;;;;;;6.40;5.60;;;26.10;99.90;;;;;;5031782;28;20175;-66
2021/06/13 08:54:49;;;;;;;6.50;5.20;;;26.50;99.90;;;;;;5017637;28;20255;-65
2021/06/13 08:57:16;;;;;;;7.35;5.53;;;26.50;99.90;;;;;;5012135;28;20172;-66
2021/06/13 08:59:43;;;;;;;5.20;4.75;;;26.10;99.90;;;;;;5013046;28;20172;-66
2021/06/13 09:02:09;;;;;;;5.00;4.60;;;26.00;99.90;;;;;;5011636;28;20183;-66
2021/06/13 09:04:35;;;;;;;6.40;4.43;;;26.40;99.90;;;;;;5022286;28;20199;-66
2021/06/13 09:07:12;;;;;;;5.70;5.10;;;27.10;99.90;;;;;;5029234;28;20179;-66
2021/06/13 09:09:38;;;;;;;5.28;4.60;;;27.70;99.90;;;;;;5021291;28;20309;-66
2021/06/13 09:12:06;;;;;;;7.43;5.10;;;28.40;99.90;;;;;;5011630;28;20251;-66
2021/06/13 09:14:40;;;;;;;4.50;4.10;;;28.90;99.90;;;;;;5012915;28;20207;-66
2021/06/13 09:17:17;;;;;;;5.85;4.90;;;28.50;99.90;;;;;;5012161;28;20536;-66
2021/06/13 09:20:06;;;;;;;5.13;4.50;;;28.30;99.90;;;;;;5012602;28;20269;-66
2021/06/13 09:22:32;;;;;;;5.32;4.80;;;28.00;99.90;;;;;;5010718;28;20614;-65
2021/06/13 09:25:13;;;;;;;6.75;4.55;;;27.50;99.90;;;;;;5011622;28;20269;-66
2021/06/13 09:27:40;;;;;;;8.50;4.80;;;27.50;99.90;;;;;;5011210;28;20164;-65
2021/06/13 09:30:08;;;;;;;5.88;5.28;;;27.50;99.90;;;;;;5023737;28;20225;-66
2021/06/13 09:33:09;;;;;;;9.15;5.45;;;27.90;99.90;;;;;;5031449;28;20258;-65
2021/06/13 09:35:36;;;;;;;5.47;4.97;;;28.30;99.00;;;;;;5013564;28;20189;-65
2021/06/13 09:38:16;;;;;;;6.78;5.53;;;27.90;98.30;;;;;;5011899;28;20180;-65
2021/06/13 09:40:48;;;;;;;5.57;4.80;;;27.70;99.90;;;;;;5026773;28;20175;-65
2021/06/13 09:43:17;;;;;;;5.30;4.85;;;28.10;99.90;;;;;;5031289;28;20203;-65
2021/06/13 09:45:49;;;;;;;6.38;5.10;;;27.30;98.80;;;;;;5029738;28;20675;-65
2021/06/13 09:48:15;;;;;;;4.88;4.47;;;25.80;98.30;;;;;;5031372;28;20172;-65
2021/06/13 09:50:47;;;;;;;7.38;4.60;;;24.90;99.20;;;;;;5015638;28;20319;-65
2021/06/13 09:53:38;;;;;;;5.88;5.40;;;25.40;99.90;;;;;;5012697;28;20215;-65
2021/06/13 09:56:05;;;;;;;5.97;4.57;;;26.30;99.90;;;;;;5011796;28;20302;-65
2021/06/13 09:58:32;;;;;;;5.28;4.80;;;27.10;99.20;;;;;;5023735;28;20184;-65
2021/06/13 10:01:09;;;;;;;5.95;5.32;;;26.90;97.10;;;;;;5031263;28;20172;-65
2021/06/13 10:03:39;;;;;;;5.80;5.22;;;27.40;99.90;;;;;;5018438;28;20557;-65
2021/06/13 10:06:06;;;;;;;6.13;4.45;;;27.50;98.00;;;;;;5011519;28;20175;-65
2021/06/13 10:08:34;;;;;;;5.50;4.97;;;28.10;99.90;;;;;;5022711;28;20175;-65
2021/06/13 10:11:00;;;;;;;5.53;4.30;;;28.40;98.20;;;;;;5030978;28;20625;-65
2021/06/13 10:13:46;;;;;;;5.88;4.40;;;28.50;98.20;;;;;;5020381;28;20284;-65
2021/06/13 10:16:33;;;;;;;5.68;4.88;;;28.30;98.50;;;;;;5013401;28;20191;-65
2021/06/13 10:19:03;;;;;;;4.95;4.47;;;27.90;99.00;;;;;;5027021;28;20183;-65
2021/06/13 10:21:38;;;;;;;6.70;5.00;;;27.70;99.00;;;;;;5025864;28;20547;-65
2021/06/13 10:24:07;;;;;;;6.18;5.55;;;27.30;98.30;;;;;;5014941;28;20697;-66
2021/06/13 10:26:35;;;;;;;6.25;5.65;;;27.50;99.90;;;;;;5018771;28;20561;-65
2021/06/13 10:29:02;;;;;;;5.28;4.78;;;27.00;99.90;;;;;;5033113;28;20258;-66
2021/06/13 10:31:27;;;;;;;5.63;5.13;;;27.00;99.90;;;;;;5034580;28;20175;-66
2021/06/13 10:33:54;;;;;;;7.22;5.40;;;27.50;99.90;;;;;;5032823;28;20204;-65
2021/06/13 10:36:20;;;;;;;5.57;4.85;;;27.90;99.90;;;;;;5034359;28;20653;-66
2021/06/13 10:38:46;;;;;;;6.20;5.35;;;28.00;99.40;;;;;;5032587;28;20274;-65
2021/06/13 10:41:12;;;;;;;5.95;5.47;;;27.90;99.90;;;;;;5033518;28;20206;-66
2021/06/13 10:43:39;;;;;;;6.40;5.70;;;28.30;99.90;;;;;;5058645;22;20768;-64
2021/06/13 10:46:14;;;;;;;5.40;4.90;;;28.50;98.70;;;;;;5033173;28;20225;-66
2021/06/13 10:48:50;;;;;;;5.93;4.93;;;28.90;98.00;;;;;;5033725;28;20167;-64
2021/06/13 10:51:26;;;;;;;7.30;5.05;;;29.50;98.90;;;;;;5014121;28;20172;-66
2021/06/13 10:53:52;;;;;;;5.20;4.70;;;29.90;99.90;;;;;;5015166;28;20226;-65
2021/06/13 10:56:25;;;;;;;7.22;4.85;;;29.50;98.10;;;;;;5014418;28;20650;-65
2021/06/13 10:58:56;;;;;;;7.60;5.72;;;28.90;98.00;;;;;;5014410;28;20172;-65
2021/06/13 11:01:30;;;;;;;7.78;5.30;;;28.40;97.00;;;;;;5014273;28;20180;-65
2021/06/13 11:04:06;;;;;;;6.10;5.43;;;28.90;98.10;;;;;;5013774;28;20207;-64
2021/06/13 11:06:45;;;;;;;5.30;4.80;;;28.90;95.80;;;;;;4994914;28;20169;-66
2021/06/13 11:09:14;;;;;;;5.78;4.43;;;28.70;98.30;;;;;;4998721;28;20204;-65
2021/06/13 11:11:47;;;;;;;6.18;4.80;;;29.10;99.60;;;;;;5013654;28;20173;-65
2021/06/13 11:14:29;;;;;;;5.75;4.80;;;29.10;95.80;;;;;;5015666;28;20275;-65
2021/06/13 11:16:58;;;;;;;6.90;5.18;;;28.30;95.30;;;;;;5033815;28;20183;-64
2021/06/13 11:19:32;;;;;;;5.68;4.53;;;28.50;97.60;;;;;;5014406;28;20246;-65
2021/06/13 11:22:16;;;;;;;8.13;6.30;;;28.80;96.70;;;;;;5013930;28;20176;-65
2021/06/13 11:24:52;;;;;;;6.78;5.22;;;28.80;97.40;;;;;;5029172;28;20205;-65
2021/06/13 11:27:17;;;;;;;8.52;7.25;;;28.50;96.70;;;;;;5032540;28;20286;-65
2021/06/13 11:29:55;;;;;;;10.32;9.10;;;28.30;99.80;;;;;;5013739;28;20263;-65
2021/06/13 11:32:48;;;;;;;6.40;5.80;;;28.50;95.00;;;;;;5013496;28;20199;-65
2021/06/13 11:35:37;;;;;;;5.65;5.03;;;28.40;96.00;;;;;;4994295;28;20197;-65
2021/06/13 11:38:12;;;;;;;5.70;4.82;;;28.70;99.40;;;;;;5000094;28;20182;-65
2021/06/13 11:40:49;;;;;;;6.00;5.30;;;28.40;94.80;;;;;;5013455;28;20172;-65
2021/06/13 11:43:17;;;;;;;7.82;5.70;;;28.50;95.30;;;;;;5012539;28;20203;-65
2021/06/13 11:45:57;;;;;;;8.00;5.35;;;27.90;95.30;;;;;;5013347;28;20207;-65
2021/06/13 11:48:26;;;;;;;8.05;7.10;;;28.30;96.70;;;;;;5020260;28;20182;-66
2021/06/13 11:51:10;;;;;;;12.13;6.88;;;28.50;96.00;;;;;;5033093;28;20605;-65
2021/06/13 11:53:51;;;;;;;6.20;5.60;;;28.40;96.40;;;;;;5024696;28;20188;-65
2021/06/13 11:56:32;;;;;;;8.65;6.22;;;29.00;96.90;;;;;;5015853;28;20250;-65
2021/06/13 11:59:17;;;;;;;7.50;6.03;;;29.60;96.70;;;;;;5033239;28;20164;-65
2021/06/13 12:01:47;;;;;;;7.35;5.78;;;29.80;95.00;;;;;;5023414;28;20203;-65
2021/06/13 12:04:15;;;;;;;6.25;5.45;;;29.90;94.10;;;;;;5013082;28;20219;-65
2021/06/13 12:06:42;;;;;;;6.90;6.00;;;29.60;94.80;;;;;;5020908;28;20176;-65
2021/06/13 12:09:11;;;;;;;10.20;6.45;;;29.40;93.90;;;;;;5033019;28;20168;-65
2021/06/13 12:11:39;;;;;;;9.68;6.50;;;28.80;95.30;;;;;;5024955;28;20235;-64
2021/06/13 12:14:37;;;;;;;7.82;7.03;;;28.00;94.90;;;;;;5013248;28;20748;-64
2021/06/13 12:17:14;;;;;;;7.63;5.20;;;28.30;97.60;;;;;;5029042;28;20175;-65
2021/06/13 12:19:41;;;;;;;7.47;6.10;;;28.60;95.40;;;;;;5032454;28;20201;-67
2021/06/13 12:22:29;;;;;;;8.68;5.68;;;29.20;96.20;;;;;;5016087;28;20539;-65
2021/06/13 12:27:35;;;;;;;5.40;4.90;;;28.60;93.10;;;;;;5031760;28;20198;-65
2021/06/13 12:30:22;;;;;;;6.93;5.60;;;28.70;95.40;;;;;;5017910;28;20546;-66
2021/06/13 12:33:05;;;;;;;9.35;6.05;;;28.60;93.50;;;;;;5012608;28;20823;-65
2021/06/13 12:35:36;;;;;;;6.35;5.75;;;28.90;95.90;;;;;;5030230;28;20658;-65
2021/06/13 12:38:09;;;;;;;7.22;5.47;;;29.50;93.00;;;;;;5032524;28;20659;-65
2021/06/13 12:40:39;;;;;;;6.38;5.68;;;29.30;93.30;;;;;;5012685;28;20172;-66
2021/06/13 12:43:07;;;;;;;6.65;5.65;;;29.00;92.90;;;;;;5011280;28;20207;-65
2021/06/13 12:45:34;;;;;;;8.40;5.70;;;29.40;94.80;;;;;;5029013;28;20600;-65
2021/06/13 12:48:02;;;;;;;6.93;6.28;;;29.50;91.90;;;;;;5032084;28;20171;-66
2021/06/13 12:50:34;;;;;;;8.00;5.85;;;29.40;94.60;;;;;;5015493;28;20258;-65
2021/06/13 12:53:01;;;;;;;7.75;6.40;;;29.50;94.60;;;;;;5012415;28;20640;-64
2021/06/13 12:56:03;;;;;;;6.90;6.30;;;29.30;97.20;;;;;;5027302;28;20290;-65